Terminal Aerodrome Forecast
Issued by NWS Milwaukee/Sullivan, WI

Home | Current Version | Previous Version | Text Only | Print | Product List | Glossary On
Versions: 1 2 3 4 5 6 7 8 9 10 11 12 13 14 15 16 17 18 19 20 21 22 23 24
000
FTUS43 KMKX 240520
TAFMSN
TAF
KMSN 240520Z 2406/2506 04006KT P6SM VCSH OVC008
     FM240900 03006KT 5SM BR VCSH OVC005
      TEMPO 2410/2413 2SM BR
     FM242000 02009KT P6SM VCSH OVC025
     FM242300 02010KT P6SM BKN035
     FM250300 02007KT P6SM BKN015=

USA.gov is the U.S. government's official web portal to all federal, state and local government web resources and services.